sensor_id;sensor_type;location;lat;lon;timestamp;temperature;humidity
947;DHT22;460;48.734;9.152;2022-08-19T00:00:10;20.40;89.90
947;DHT22;460;48.734;9.152;2022-08-19T00:02:40;20.50;89.90
947;DHT22;460;48.734;9.152;2022-08-19T00:05:08;20.50;89.60
947;DHT22;460;48.734;9.152;2022-08-19T00:07:35;20.50;89.60
947;DHT22;460;48.734;9.152;2022-08-19T00:10:04;20.50;89.80
947;DHT22;460;48.734;9.152;2022-08-19T00:12:31;20.50;90.00
947;DHT22;460;48.734;9.152;2022-08-19T00:14:58;20.50;90.10
947;DHT22;460;48.734;9.152;2022-08-19T00:17:26;20.50;90.30
947;DHT22;460;48.734;9.152;2022-08-19T00:19:53;20.50;90.50
947;DHT22;460;48.734;9.152;2022-08-19T00:22:19;20.40;90.60
947;DHT22;460;48.734;9.152;2022-08-19T00:24:46;20.40;91.00
947;DHT22;460;48.734;9.152;2022-08-19T00:27:13;20.40;90.80
947;DHT22;460;48.734;9.152;2022-08-19T00:29:41;20.40;91.00
947;DHT22;460;48.734;9.152;2022-08-19T00:32:08;20.40;91.00
947;DHT22;460;48.734;9.152;2022-08-19T00:34:36;20.40;90.80
947;DHT22;460;48.734;9.152;2022-08-19T00:37:03;20.30;90.60
947;DHT22;460;48.734;9.152;2022-08-19T00:39:30;20.40;90.80
947;DHT22;460;48.734;9.152;2022-08-19T00:41:57;20.20;90.80
947;DHT22;460;48.734;9.152;2022-08-19T00:44:26;20.20;91.00
947;DHT22;460;48.734;9.152;2022-08-19T00:46:55;20.30;91.00
947;DHT22;460;48.734;9.152;2022-08-19T00:49:27;20.20;91.00
947;DHT22;460;48.734;9.152;2022-08-19T00:52:03;20.30;91.30
947;DHT22;460;48.734;9.152;2022-08-19T00:54:31;20.30;91.20
947;DHT22;460;48.734;9.152;2022-08-19T00:56:59;20.30;91.50
947;DHT22;460;48.734;9.152;2022-08-19T00:59:29;20.20;91.40
947;DHT22;460;48.734;9.152;2022-08-19T01:01:56;20.20;91.50
947;DHT22;460;48.734;9.152;2022-08-19T01:04:23;20.20;92.00
947;DHT22;460;48.734;9.152;2022-08-19T01:06:50;20.20;91.90
947;DHT22;460;48.734;9.152;2022-08-19T01:09:18;20.00;92.50
947;DHT22;460;48.734;9.152;2022-08-19T01:11:45;20.20;92.90
947;DHT22;460;48.734;9.152;2022-08-19T01:14:13;20.10;92.60
947;DHT22;460;48.734;9.152;2022-08-19T01:16:43;20.10;92.90
947;DHT22;460;48.734;9.152;2022-08-19T01:19:17;20.10;93.20
947;DHT22;460;48.734;9.152;2022-08-19T01:21:53;20.10;92.90
947;DHT22;460;48.734;9.152;2022-08-19T01:24:24;20.10;93.10
947;DHT22;460;48.734;9.152;2022-08-19T01:26:52;20.00;93.80
947;DHT22;460;48.734;9.152;2022-08-19T01:29:20;20.00;94.10
947;DHT22;460;48.734;9.152;2022-08-19T01:31:47;19.90;94.20
947;DHT22;460;48.734;9.152;2022-08-19T01:34:18;19.90;94.00
947;DHT22;460;48.734;9.152;2022-08-19T01:36:47;19.90;94.10
947;DHT22;460;48.734;9.152;2022-08-19T01:39:16;19.90;94.00
947;DHT22;460;48.734;9.152;2022-08-19T01:41:45;19.90;93.50
947;DHT22;460;48.734;9.152;2022-08-19T01:44:12;19.90;93.60
947;DHT22;460;48.734;9.152;2022-08-19T01:46:39;19.90;93.70
947;DHT22;460;48.734;9.152;2022-08-19T01:49:06;19.90;93.40
947;DHT22;460;48.734;9.152;2022-08-19T01:51:34;20.00;93.70
947;DHT22;460;48.734;9.152;2022-08-19T01:54:01;19.90;93.40
947;DHT22;460;48.734;9.152;2022-08-19T01:56:28;19.90;93.40
947;DHT22;460;48.734;9.152;2022-08-19T01:58:58;19.90;93.20
947;DHT22;460;48.734;9.152;2022-08-19T02:01:26;20.00;92.90
947;DHT22;460;48.734;9.152;2022-08-19T02:03:57;20.00;93.00
947;DHT22;460;48.734;9.152;2022-08-19T02:06:26;19.90;93.30
947;DHT22;460;48.734;9.152;2022-08-19T02:08:52;19.90;93.50
947;DHT22;460;48.734;9.152;2022-08-19T02:11:21;19.90;93.60
947;DHT22;460;48.734;9.152;2022-08-19T02:13:48;19.80;93.60
947;DHT22;460;48.734;9.152;2022-08-19T02:16:18;19.80;93.80
947;DHT22;460;48.734;9.152;2022-08-19T02:18:45;19.80;93.80
947;DHT22;460;48.734;9.152;2022-08-19T02:23:41;19.90;93.30
947;DHT22;460;48.734;9.152;2022-08-19T02:26:09;19.80;93.50
947;DHT22;460;48.734;9.152;2022-08-19T02:28:36;19.80;93.70
947;DHT22;460;48.734;9.152;2022-08-19T02:31:03;19.80;93.80
947;DHT22;460;48.734;9.152;2022-08-19T02:33:31;19.80;93.80
947;DHT22;460;48.734;9.152;2022-08-19T02:35:58;19.80;94.20
947;DHT22;460;48.734;9.152;2022-08-19T02:38:26;19.80;93.90
947;DHT22;460;48.734;9.152;2022-08-19T02:40:56;19.70;93.70
947;DHT22;460;48.734;9.152;2022-08-19T02:43:24;19.80;94.00
947;DHT22;460;48.734;9.152;2022-08-19T02:45:51;19.70;94.10
947;DHT22;460;48.734;9.152;2022-08-19T02:48:21;19.70;94.20
947;DHT22;460;48.734;9.152;2022-08-19T02:50:51;19.70;94.40
947;DHT22;460;48.734;9.152;2022-08-19T02:53:22;19.70;94.50
947;DHT22;460;48.734;9.152;2022-08-19T02:55:51;19.60;94.60
947;DHT22;460;48.734;9.152;2022-08-19T02:58:20;19.60;94.60
947;DHT22;460;48.734;9.152;2022-08-19T03:00:50;19.60;94.60
947;DHT22;460;48.734;9.152;2022-08-19T03:03:18;19.60;94.40
947;DHT22;460;48.734;9.152;2022-08-19T03:05:45;19.70;94.60
947;DHT22;460;48.734;9.152;2022-08-19T03:08:14;19.70;94.40
947;DHT22;460;48.734;9.152;2022-08-19T03:10:44;19.60;94.70
947;DHT22;460;48.734;9.152;2022-08-19T03:13:13;19.60;94.90
947;DHT22;460;48.734;9.152;2022-08-19T03:15:41;19.50;95.30
947;DHT22;460;48.734;9.152;2022-08-19T03:18:10;19.50;95.30
947;DHT22;460;48.734;9.152;2022-08-19T03:20:42;19.60;95.20
947;DHT22;460;48.734;9.152;2022-08-19T03:23:10;19.50;95.10
947;DHT22;460;48.734;9.152;2022-08-19T03:25:41;19.50;95.50
947;DHT22;460;48.734;9.152;2022-08-19T03:28:11;19.50;95.50
947;DHT22;460;48.734;9.152;2022-08-19T03:30:41;19.50;95.40
947;DHT22;460;48.734;9.152;2022-08-19T03:33:10;19.60;95.20
947;DHT22;460;48.734;9.152;2022-08-19T03:35:42;19.60;95.20
947;DHT22;460;48.734;9.152;2022-08-19T03:38:12;19.60;95.20
947;DHT22;460;48.734;9.152;2022-08-19T03:40:40;19.60;95.30
947;DHT22;460;48.734;9.152;2022-08-19T03:43:09;19.50;95.40
947;DHT22;460;48.734;9.152;2022-08-19T03:45:37;19.50;95.30
947;DHT22;460;48.734;9.152;2022-08-19T03:48:05;19.50;95.50
947;DHT22;460;48.734;9.152;2022-08-19T03:50:33;19.40;95.70
947;DHT22;460;48.734;9.152;2022-08-19T03:53:05;19.50;95.70
947;DHT22;460;48.734;9.152;2022-08-19T03:55:40;19.40;95.70
947;DHT22;460;48.734;9.152;2022-08-19T03:58:07;19.40;95.70
947;DHT22;460;48.734;9.152;2022-08-19T04:00:34;19.40;95.90
947;DHT22;460;48.734;9.152;2022-08-19T04:03:01;19.40;95.90
947;DHT22;460;48.734;9.152;2022-08-19T04:05:28;19.30;96.10
947;DHT22;460;48.734;9.152;2022-08-19T04:07:55;19.30;96.20
947;DHT22;460;48.734;9.152;2022-08-19T04:10:24;19.30;96.10
947;DHT22;460;48.734;9.152;2022-08-19T04:12:52;19.30;96.30
947;DHT22;460;48.734;9.152;2022-08-19T04:15:19;19.30;96.30
947;DHT22;460;48.734;9.152;2022-08-19T04:17:46;19.30;96.20
947;DHT22;460;48.734;9.152;2022-08-19T04:20:13;19.10;96.50
947;DHT22;460;48.734;9.152;2022-08-19T04:22:40;19.10;96.70
947;DHT22;460;48.734;9.152;2022-08-19T04:25:08;19.20;96.50
947;DHT22;460;48.734;9.152;2022-08-19T04:27:35;19.20;96.70
947;DHT22;460;48.734;9.152;2022-08-19T04:30:03;19.20;96.50
947;DHT22;460;48.734;9.152;2022-08-19T04:32:30;19.20;96.30
947;DHT22;460;48.734;9.152;2022-08-19T04:34:58;19.20;96.50
947;DHT22;460;48.734;9.152;2022-08-19T04:37:25;19.30;96.40
947;DHT22;460;48.734;9.152;2022-08-19T04:39:52;19.30;96.20
947;DHT22;460;48.734;9.152;2022-08-19T04:42:37;19.30;96.20
947;DHT22;460;48.734;9.152;2022-08-19T04:45:11;19.20;96.60
947;DHT22;460;48.734;9.152;2022-08-19T04:47:40;19.20;96.80
947;DHT22;460;48.734;9.152;2022-08-19T04:50:08;19.20;96.90
947;DHT22;460;48.734;9.152;2022-08-19T04:52:36;19.10;96.90
947;DHT22;460;48.734;9.152;2022-08-19T04:55:08;19.10;96.90
947;DHT22;460;48.734;9.152;2022-08-19T04:57:35;19.20;96.90
947;DHT22;460;48.734;9.152;2022-08-19T05:00:09;19.20;96.70
947;DHT22;460;48.734;9.152;2022-08-19T05:02:36;19.20;96.80
947;DHT22;460;48.734;9.152;2022-08-19T05:05:04;19.20;96.80
947;DHT22;460;48.734;9.152;2022-08-19T05:07:32;19.20;97.00
947;DHT22;460;48.734;9.152;2022-08-19T05:09:59;19.20;97.30
947;DHT22;460;48.734;9.152;2022-08-19T05:12:26;19.20;96.70
947;DHT22;460;48.734;9.152;2022-08-19T05:14:54;19.20;96.90
947;DHT22;460;48.734;9.152;2022-08-19T05:17:23;19.20;97.00
947;DHT22;460;48.734;9.152;2022-08-19T05:19:50;19.20;96.90
947;DHT22;460;48.734;9.152;2022-08-19T05:22:34;19.20;96.50
947;DHT22;460;48.734;9.152;2022-08-19T05:25:04;19.30;96.70
947;DHT22;460;48.734;9.152;2022-08-19T05:27:32;19.30;96.50
947;DHT22;460;48.734;9.152;2022-08-19T05:29:59;19.30;96.70
947;DHT22;460;48.734;9.152;2022-08-19T05:32:28;19.40;96.70
947;DHT22;460;48.734;9.152;2022-08-19T05:34:55;19.40;96.60
947;DHT22;460;48.734;9.152;2022-08-19T05:37:22;19.50;96.50
947;DHT22;460;48.734;9.152;2022-08-19T05:39:52;19.40;96.60
947;DHT22;460;48.734;9.152;2022-08-19T05:42:20;19.40;96.50
947;DHT22;460;48.734;9.152;2022-08-19T05:44:49;19.50;96.60
947;DHT22;460;48.734;9.152;2022-08-19T05:47:16;19.30;96.50
947;DHT22;460;48.734;9.152;2022-08-19T05:49:47;19.30;96.70
947;DHT22;460;48.734;9.152;2022-08-19T05:52:15;19.30;96.80
947;DHT22;460;48.734;9.152;2022-08-19T05:54:42;19.40;96.70
947;DHT22;460;48.734;9.152;2022-08-19T05:57:13;19.40;96.80
947;DHT22;460;48.734;9.152;2022-08-19T05:59:40;19.40;96.80
947;DHT22;460;48.734;9.152;2022-08-19T06:02:07;19.30;96.90
947;DHT22;460;48.734;9.152;2022-08-19T06:04:34;19.30;96.90
947;DHT22;460;48.734;9.152;2022-08-19T06:07:03;19.30;97.00
947;DHT22;460;48.734;9.152;2022-08-19T06:09:30;19.30;96.90
947;DHT22;460;48.734;9.152;2022-08-19T06:11:58;19.40;96.80
947;DHT22;460;48.734;9.152;2022-08-19T06:14:32;19.40;96.60
947;DHT22;460;48.734;9.152;2022-08-19T06:17:01;19.40;96.70
947;DHT22;460;48.734;9.152;2022-08-19T06:19:29;19.40;96.90
947;DHT22;460;48.734;9.152;2022-08-19T06:21:57;19.40;96.60
947;DHT22;460;48.734;9.152;2022-08-19T06:24:27;19.50;96.60
947;DHT22;460;48.734;9.152;2022-08-19T06:26:56;19.50;96.70
947;DHT22;460;48.734;9.152;2022-08-19T06:29:24;19.50;96.70
947;DHT22;460;48.734;9.152;2022-08-19T06:31:54;19.50;96.50
947;DHT22;460;48.734;9.152;2022-08-19T06:34:21;19.50;97.00
947;DHT22;460;48.734;9.152;2022-08-19T06:36:50;19.40;96.80
947;DHT22;460;48.734;9.152;2022-08-19T06:39:20;19.40;97.30
947;DHT22;460;48.734;9.152;2022-08-19T06:41:50;19.40;97.10
947;DHT22;460;48.734;9.152;2022-08-19T06:44:18;19.40;97.40
947;DHT22;460;48.734;9.152;2022-08-19T06:46:45;19.40;97.70
947;DHT22;460;48.734;9.152;2022-08-19T06:49:14;19.40;98.20
947;DHT22;460;48.734;9.152;2022-08-19T06:51:42;19.40;98.80
947;DHT22;460;48.734;9.152;2022-08-19T06:54:10;19.30;98.50
947;DHT22;460;48.734;9.152;2022-08-19T06:56:37;19.20;99.20
947;DHT22;460;48.734;9.152;2022-08-19T06:59:10;19.20;99.60
947;DHT22;460;48.734;9.152;2022-08-19T07:01:39;19.20;99.90
947;DHT22;460;48.734;9.152;2022-08-19T07:04:08;19.20;99.90
947;DHT22;460;48.734;9.152;2022-08-19T07:06:36;19.20;99.90
947;DHT22;460;48.734;9.152;2022-08-19T07:09:03;19.20;99.90
947;DHT22;460;48.734;9.152;2022-08-19T07:11:31;19.20;99.90
947;DHT22;460;48.734;9.152;2022-08-19T07:13:58;19.10;99.90
947;DHT22;460;48.734;9.152;2022-08-19T07:16:26;19.20;99.90
947;DHT22;460;48.734;9.152;2022-08-19T07:18:54;19.20;99.90
947;DHT22;460;48.734;9.152;2022-08-19T07:21:24;19.10;99.90
947;DHT22;460;48.734;9.152;2022-08-19T07:23:53;19.10;99.90
947;DHT22;460;48.734;9.152;2022-08-19T07:26:24;19.00;99.90
947;DHT22;460;48.734;9.152;2022-08-19T07:28:51;19.10;99.90
947;DHT22;460;48.734;9.152;2022-08-19T07:31:20;19.00;99.90
947;DHT22;460;48.734;9.152;2022-08-19T07:33:51;18.90;99.90
947;DHT22;460;48.734;9.152;2022-08-19T07:36:21;18.90;99.90
947;DHT22;460;48.734;9.152;2022-08-19T07:38:50;19.00;99.90
947;DHT22;460;48.734;9.152;2022-08-19T07:41:19;19.00;99.90
947;DHT22;460;48.734;9.152;2022-08-19T07:43:46;18.90;99.90
947;DHT22;460;48.734;9.152;2022-08-19T07:46:13;18.90;99.90
947;DHT22;460;48.734;9.152;2022-08-19T07:48:41;18.90;99.90
947;DHT22;460;48.734;9.152;2022-08-19T07:51:11;18.90;99.90
947;DHT22;460;48.734;9.152;2022-08-19T07:53:38;18.90;99.90
947;DHT22;460;48.734;9.152;2022-08-19T07:56:05;19.00;99.90
947;DHT22;460;48.734;9.152;2022-08-19T07:58:37;19.10;99.90
947;DHT22;460;48.734;9.152;2022-08-19T08:01:07;19.00;99.90
947;DHT22;460;48.734;9.152;2022-08-19T08:03:36;19.00;99.90
947;DHT22;460;48.734;9.152;2022-08-19T08:06:23;19.10;99.90
947;DHT22;460;48.734;9.152;2022-08-19T08:09:07;19.10;99.90
947;DHT22;460;48.734;9.152;2022-08-19T08:11:38;19.10;99.90
947;DHT22;460;48.734;9.152;2022-08-19T08:14:05;19.10;99.90
947;DHT22;460;48.734;9.152;2022-08-19T08:16:34;19.10;99.90
947;DHT22;460;48.734;9.152;2022-08-19T08:19:04;19.20;99.90
947;DHT22;460;48.734;9.152;2022-08-19T08:21:32;19.30;99.90
947;DHT22;460;48.734;9.152;2022-08-19T08:23:59;19.20;99.90
947;DHT22;460;48.734;9.152;2022-08-19T08:26:26;19.20;99.90
947;DHT22;460;48.734;9.152;2022-08-19T08:28:53;19.20;99.90
947;DHT22;460;48.734;9.152;2022-08-19T08:31:20;19.20;99.90
947;DHT22;460;48.734;9.152;2022-08-19T08:33:48;19.10;99.90
947;DHT22;460;48.734;9.152;2022-08-19T08:36:15;19.00;99.90
947;DHT22;460;48.734;9.152;2022-08-19T08:38:47;19.00;99.90
947;DHT22;460;48.734;9.152;2022-08-19T08:41:23;19.10;99.90
947;DHT22;460;48.734;9.152;2022-08-19T08:43:54;19.10;99.90
947;DHT22;460;48.734;9.152;2022-08-19T08:46:27;19.10;99.90
947;DHT22;460;48.734;9.152;2022-08-19T08:49:01;19.20;99.90
947;DHT22;460;48.734;9.152;2022-08-19T08:51:42;19.10;99.90
947;DHT22;460;48.734;9.152;2022-08-19T08:54:14;19.00;99.90
947;DHT22;460;48.734;9.152;2022-08-19T08:56:42;19.10;99.90
947;DHT22;460;48.734;9.152;2022-08-19T08:59:15;19.10;99.90
947;DHT22;460;48.734;9.152;2022-08-19T09:01:43;19.20;99.90
947;DHT22;460;48.734;9.152;2022-08-19T09:04:12;19.40;99.90
947;DHT22;460;48.734;9.152;2022-08-19T09:09:34;19.40;99.90
947;DHT22;460;48.734;9.152;2022-08-19T09:12:09;19.30;99.90
947;DHT22;460;48.734;9.152;2022-08-19T09:14:43;19.40;99.90
947;DHT22;460;48.734;9.152;2022-08-19T09:17:13;19.30;99.90
947;DHT22;460;48.734;9.152;2022-08-19T09:19:50;19.30;99.90
947;DHT22;460;48.734;9.152;2022-08-19T09:22:17;19.30;99.90
947;DHT22;460;48.734;9.152;2022-08-19T09:24:48;19.40;99.90
947;DHT22;460;48.734;9.152;2022-08-19T09:27:16;19.30;99.90
947;DHT22;460;48.734;9.152;2022-08-19T09:29:43;19.40;99.90
947;DHT22;460;48.734;9.152;2022-08-19T09:32:09;19.40;99.90
947;DHT22;460;48.734;9.152;2022-08-19T09:34:39;19.30;99.90
947;DHT22;460;48.734;9.152;2022-08-19T09:37:07;19.30;99.90
947;DHT22;460;48.734;9.152;2022-08-19T09:39:34;19.50;99.90
947;DHT22;460;48.734;9.152;2022-08-19T09:42:02;19.50;99.90
947;DHT22;460;48.734;9.152;2022-08-19T09:44:30;19.50;99.90
947;DHT22;460;48.734;9.152;2022-08-19T09:46:59;19.50;99.90
947;DHT22;460;48.734;9.152;2022-08-19T09:49:26;19.50;99.90
947;DHT22;460;48.734;9.152;2022-08-19T09:51:53;19.60;99.90
947;DHT22;460;48.734;9.152;2022-08-19T09:54:21;19.60;99.90
947;DHT22;460;48.734;9.152;2022-08-19T09:56:49;19.70;99.90
947;DHT22;460;48.734;9.152;2022-08-19T09:59:17;19.70;99.90
947;DHT22;460;48.734;9.152;2022-08-19T10:01:44;19.60;99.90
947;DHT22;460;48.734;9.152;2022-08-19T10:04:11;19.60;99.90
947;DHT22;460;48.734;9.152;2022-08-19T10:06:39;19.60;99.90
947;DHT22;460;48.734;9.152;2022-08-19T10:09:08;19.70;99.90
947;DHT22;460;48.734;9.152;2022-08-19T10:11:38;19.70;99.90
947;DHT22;460;48.734;9.152;2022-08-19T10:14:06;19.80;99.90
947;DHT22;460;48.734;9.152;2022-08-19T10:16:36;19.80;99.90
947;DHT22;460;48.734;9.152;2022-08-19T10:19:05;19.90;99.90
947;DHT22;460;48.734;9.152;2022-08-19T10:21:32;19.90;99.90
947;DHT22;460;48.734;9.152;2022-08-19T10:24:03;19.80;99.90
947;DHT22;460;48.734;9.152;2022-08-19T10:26:32;19.80;99.90
947;DHT22;460;48.734;9.152;2022-08-19T10:29:00;20.00;99.90
947;DHT22;460;48.734;9.152;2022-08-19T10:31:29;19.90;99.90
947;DHT22;460;48.734;9.152;2022-08-19T10:33:57;20.00;99.90
947;DHT22;460;48.734;9.152;2022-08-19T10:36:28;20.00;99.90
947;DHT22;460;48.734;9.152;2022-08-19T10:38:59;20.10;99.90
947;DHT22;460;48.734;9.152;2022-08-19T10:41:29;20.10;99.90
947;DHT22;460;48.734;9.152;2022-08-19T10:43:58;20.10;99.90
947;DHT22;460;48.734;9.152;2022-08-19T10:46:26;20.10;99.90
947;DHT22;460;48.734;9.152;2022-08-19T10:48:54;20.10;99.90
947;DHT22;460;48.734;9.152;2022-08-19T10:51:22;20.20;99.90
947;DHT22;460;48.734;9.152;2022-08-19T10:54:06;20.20;99.90
947;DHT22;460;48.734;9.152;2022-08-19T10:56:33;20.20;99.90
947;DHT22;460;48.734;9.152;2022-08-19T10:59:19;20.00;99.90
947;DHT22;460;48.734;9.152;2022-08-19T11:01:47;20.00;99.90
947;DHT22;460;48.734;9.152;2022-08-19T11:04:14;20.10;99.90
947;DHT22;460;48.734;9.152;2022-08-19T11:06:48;20.20;99.90
947;DHT22;460;48.734;9.152;2022-08-19T11:09:17;20.20;99.90
947;DHT22;460;48.734;9.152;2022-08-19T11:11:44;20.20;99.90
947;DHT22;460;48.734;9.152;2022-08-19T11:14:12;20.20;99.90
947;DHT22;460;48.734;9.152;2022-08-19T11:16:41;20.30;99.90
947;DHT22;460;48.734;9.152;2022-08-19T11:19:09;20.30;99.90
947;DHT22;460;48.734;9.152;2022-08-19T11:21:40;20.40;99.90
947;DHT22;460;48.734;9.152;2022-08-19T11:24:11;20.30;99.90
947;DHT22;460;48.734;9.152;2022-08-19T11:26:39;20.30;99.90
947;DHT22;460;48.734;9.152;2022-08-19T11:29:08;20.40;99.90
947;DHT22;460;48.734;9.152;2022-08-19T11:31:39;20.50;99.90
947;DHT22;460;48.734;9.152;2022-08-19T11:34:11;20.50;99.90
947;DHT22;460;48.734;9.152;2022-08-19T11:36:40;20.70;99.90
947;DHT22;460;48.734;9.152;2022-08-19T11:39:10;20.90;99.90
947;DHT22;460;48.734;9.152;2022-08-19T11:41:37;21.00;99.90
947;DHT22;460;48.734;9.152;2022-08-19T11:44:05;21.10;99.90
947;DHT22;460;48.734;9.152;2022-08-19T11:46:32;21.00;99.90
947;DHT22;460;48.734;9.152;2022-08-19T11:48:59;21.00;99.90
947;DHT22;460;48.734;9.152;2022-08-19T11:51:29;21.10;99.90
947;DHT22;460;48.734;9.152;2022-08-19T11:53:57;21.20;99.90
947;DHT22;460;48.734;9.152;2022-08-19T11:56:27;21.20;99.90
947;DHT22;460;48.734;9.152;2022-08-19T11:58:54;21.20;99.40
947;DHT22;460;48.734;9.152;2022-08-19T12:01:23;21.10;99.90
947;DHT22;460;48.734;9.152;2022-08-19T12:03:52;21.20;99.70
947;DHT22;460;48.734;9.152;2022-08-19T12:06:23;21.30;99.00
947;DHT22;460;48.734;9.152;2022-08-19T12:08:55;21.40;98.80
947;DHT22;460;48.734;9.152;2022-08-19T12:11:22;21.50;98.30
947;DHT22;460;48.734;9.152;2022-08-19T12:13:51;21.50;98.90
947;DHT22;460;48.734;9.152;2022-08-19T12:16:21;21.50;97.40
947;DHT22;460;48.734;9.152;2022-08-19T12:18:48;21.50;98.50
947;DHT22;460;48.734;9.152;2022-08-19T12:21:18;21.40;96.90
947;DHT22;460;48.734;9.152;2022-08-19T12:23:47;21.50;98.00
947;DHT22;460;48.734;9.152;2022-08-19T12:26:14;21.40;98.60
947;DHT22;460;48.734;9.152;2022-08-19T12:28:42;21.50;97.80
947;DHT22;460;48.734;9.152;2022-08-19T12:31:11;21.60;98.80
947;DHT22;460;48.734;9.152;2022-08-19T12:33:38;21.50;99.00
947;DHT22;460;48.734;9.152;2022-08-19T12:36:11;21.50;98.70
947;DHT22;460;48.734;9.152;2022-08-19T12:38:39;21.60;97.90
947;DHT22;460;48.734;9.152;2022-08-19T12:41:08;21.60;98.10
947;DHT22;460;48.734;9.152;2022-08-19T12:43:36;21.70;98.10
947;DHT22;460;48.734;9.152;2022-08-19T12:46:04;21.60;97.80
947;DHT22;460;48.734;9.152;2022-08-19T12:48:33;21.60;98.00
947;DHT22;460;48.734;9.152;2022-08-19T12:51:01;21.50;98.10
947;DHT22;460;48.734;9.152;2022-08-19T12:53:32;21.60;99.80
947;DHT22;460;48.734;9.152;2022-08-19T12:55:59;21.50;99.90
947;DHT22;460;48.734;9.152;2022-08-19T12:58:26;21.50;99.90
947;DHT22;460;48.734;9.152;2022-08-19T13:00:53;21.40;99.90
947;DHT22;460;48.734;9.152;2022-08-19T13:03:20;21.40;99.90
947;DHT22;460;48.734;9.152;2022-08-19T13:05:50;21.40;99.90
947;DHT22;460;48.734;9.152;2022-08-19T13:08:17;21.50;99.90
947;DHT22;460;48.734;9.152;2022-08-19T13:10:44;21.40;99.90
947;DHT22;460;48.734;9.152;2022-08-19T13:13:12;21.40;99.90
947;DHT22;460;48.734;9.152;2022-08-19T13:15:41;21.40;99.90
947;DHT22;460;48.734;9.152;2022-08-19T13:18:11;21.50;99.90
947;DHT22;460;48.734;9.152;2022-08-19T13:20:39;21.50;99.90
947;DHT22;460;48.734;9.152;2022-08-19T13:23:09;21.50;99.90
947;DHT22;460;48.734;9.152;2022-08-19T13:25:36;21.60;99.90
947;DHT22;460;48.734;9.152;2022-08-19T13:28:03;21.60;99.90
947;DHT22;460;48.734;9.152;2022-08-19T13:30:32;21.60;99.90
947;DHT22;460;48.734;9.152;2022-08-19T13:33:17;21.50;99.90
947;DHT22;460;48.734;9.152;2022-08-19T13:35:48;21.50;99.90
947;DHT22;460;48.734;9.152;2022-08-19T13:38:20;21.40;99.90
947;DHT22;460;48.734;9.152;2022-08-19T13:40:50;21.40;99.90
947;DHT22;460;48.734;9.152;2022-08-19T13:43:18;21.40;99.90
947;DHT22;460;48.734;9.152;2022-08-19T13:45:45;21.40;99.90
947;DHT22;460;48.734;9.152;2022-08-19T13:48:12;21.30;99.90
947;DHT22;460;48.734;9.152;2022-08-19T13:50:41;21.30;99.90
947;DHT22;460;48.734;9.152;2022-08-19T13:53:08;21.30;99.90
947;DHT22;460;48.734;9.152;2022-08-19T13:55:37;21.30;99.90
947;DHT22;460;48.734;9.152;2022-08-19T13:58:04;21.20;99.90
947;DHT22;460;48.734;9.152;2022-08-19T14:00:33;21.20;99.90
947;DHT22;460;48.734;9.152;2022-08-19T14:03:01;21.20;99.90
947;DHT22;460;48.734;9.152;2022-08-19T14:05:32;21.20;99.90
947;DHT22;460;48.734;9.152;2022-08-19T14:07:59;21.10;99.90
947;DHT22;460;48.734;9.152;2022-08-19T14:10:27;21.20;99.90
947;DHT22;460;48.734;9.152;2022-08-19T14:12:59;21.10;99.90
947;DHT22;460;48.734;9.152;2022-08-19T14:15:27;21.10;99.90
947;DHT22;460;48.734;9.152;2022-08-19T14:17:54;21.00;99.90
947;DHT22;460;48.734;9.152;2022-08-19T14:20:21;20.90;99.90
947;DHT22;460;48.734;9.152;2022-08-19T14:22:49;20.90;99.90
947;DHT22;460;48.734;9.152;2022-08-19T14:25:19;20.90;99.90
947;DHT22;460;48.734;9.152;2022-08-19T14:27:47;21.00;99.90
947;DHT22;460;48.734;9.152;2022-08-19T14:30:19;21.10;99.90
947;DHT22;460;48.734;9.152;2022-08-19T14:32:46;21.20;99.90
947;DHT22;460;48.734;9.152;2022-08-19T14:35:14;21.40;99.90
947;DHT22;460;48.734;9.152;2022-08-19T14:37:42;21.50;99.90
947;DHT22;460;48.734;9.152;2022-08-19T14:40:11;21.50;99.90
947;DHT22;460;48.734;9.152;2022-08-19T14:42:38;21.70;99.90
947;DHT22;460;48.734;9.152;2022-08-19T14:45:06;21.70;99.90
947;DHT22;460;48.734;9.152;2022-08-19T14:47:37;21.50;99.90
947;DHT22;460;48.734;9.152;2022-08-19T14:50:06;21.50;99.90
947;DHT22;460;48.734;9.152;2022-08-19T14:52:33;21.60;99.90
947;DHT22;460;48.734;9.152;2022-08-19T14:55:00;21.50;99.90
947;DHT22;460;48.734;9.152;2022-08-19T14:57:27;21.60;99.90
947;DHT22;460;48.734;9.152;2022-08-19T14:59:54;21.70;99.90
947;DHT22;460;48.734;9.152;2022-08-19T15:02:22;21.70;99.90
947;DHT22;460;48.734;9.152;2022-08-19T15:04:50;21.80;99.90
947;DHT22;460;48.734;9.152;2022-08-19T15:07:17;21.70;99.90
947;DHT22;460;48.734;9.152;2022-08-19T15:09:44;21.70;99.90
947;DHT22;460;48.734;9.152;2022-08-19T15:12:11;21.70;99.90
947;DHT22;460;48.734;9.152;2022-08-19T15:14:40;21.70;99.90
947;DHT22;460;48.734;9.152;2022-08-19T15:17:09;21.70;99.90
947;DHT22;460;48.734;9.152;2022-08-19T15:19:36;21.80;99.90
947;DHT22;460;48.734;9.152;2022-08-19T15:22:05;21.70;99.90
947;DHT22;460;48.734;9.152;2022-08-19T15:24:32;21.80;99.90
947;DHT22;460;48.734;9.152;2022-08-19T15:27:00;21.80;99.90
947;DHT22;460;48.734;9.152;2022-08-19T15:29:27;21.90;99.90
947;DHT22;460;48.734;9.152;2022-08-19T15:31:54;21.90;99.90
947;DHT22;460;48.734;9.152;2022-08-19T15:34:22;22.00;99.90
947;DHT22;460;48.734;9.152;2022-08-19T15:36:50;21.90;99.90
947;DHT22;460;48.734;9.152;2022-08-19T15:39:19;22.00;99.90
947;DHT22;460;48.734;9.152;2022-08-19T15:41:46;22.00;99.90
947;DHT22;460;48.734;9.152;2022-08-19T15:44:15;22.00;99.90
947;DHT22;460;48.734;9.152;2022-08-19T15:46:44;21.90;99.90
947;DHT22;460;48.734;9.152;2022-08-19T15:49:14;21.90;99.90
947;DHT22;460;48.734;9.152;2022-08-19T15:51:43;21.90;99.90
947;DHT22;460;48.734;9.152;2022-08-19T15:54:12;22.00;99.90
947;DHT22;460;48.734;9.152;2022-08-19T15:56:41;22.00;99.90
947;DHT22;460;48.734;9.152;2022-08-19T15:59:26;22.00;99.90
947;DHT22;460;48.734;9.152;2022-08-19T16:02:11;22.00;99.90
947;DHT22;460;48.734;9.152;2022-08-19T16:04:55;21.90;99.90
947;DHT22;460;48.734;9.152;2022-08-19T16:07:40;22.00;99.90
947;DHT22;460;48.734;9.152;2022-08-19T16:10:07;22.10;99.90
947;DHT22;460;48.734;9.152;2022-08-19T16:12:36;22.00;99.90
947;DHT22;460;48.734;9.152;2022-08-19T16:15:04;22.20;99.90
947;DHT22;460;48.734;9.152;2022-08-19T16:17:31;22.20;99.90
947;DHT22;460;48.734;9.152;2022-08-19T16:20:00;22.30;99.90
947;DHT22;460;48.734;9.152;2022-08-19T16:22:28;22.20;99.90
947;DHT22;460;48.734;9.152;2022-08-19T16:24:56;22.10;99.90
947;DHT22;460;48.734;9.152;2022-08-19T16:27:23;22.20;99.90
947;DHT22;460;48.734;9.152;2022-08-19T16:29:51;22.20;99.90
947;DHT22;460;48.734;9.152;2022-08-19T16:32:18;22.10;99.90
947;DHT22;460;48.734;9.152;2022-08-19T16:34:46;22.00;99.90
947;DHT22;460;48.734;9.152;2022-08-19T16:37:13;22.00;99.90
947;DHT22;460;48.734;9.152;2022-08-19T16:39:41;22.00;99.90
947;DHT22;460;48.734;9.152;2022-08-19T16:42:09;22.10;99.90
947;DHT22;460;48.734;9.152;2022-08-19T16:44:40;21.80;99.90
947;DHT22;460;48.734;9.152;2022-08-19T16:47:08;21.80;99.90
947;DHT22;460;48.734;9.152;2022-08-19T16:49:35;21.80;99.90